createdAt,value
2017-08-09T00:00:04.162Z,15.55
2017-08-09T00:00:08.391Z,15.55
2017-08-09T00:00:12.748Z,15.55
2017-08-09T00:00:17.230Z,15.55
2017-08-09T00:00:21.569Z,15.55
2017-08-09T00:00:25.797Z,15.55
2017-08-09T00:00:30.156Z,15.55
2017-08-09T00:00:34.495Z,15.55
2017-08-09T00:00:38.746Z,15.55
2017-08-09T00:00:42.752Z,15.55
2017-08-09T00:00:47.212Z,15.55
2017-08-09T00:00:51.563Z,15.55
2017-08-09T00:00:55.923Z,15.55
2017-08-09T00:01:00.155Z,15.54
2017-08-09T00:01:04.821Z,15.56
2017-08-09T00:01:09.301Z,15.55
2017-08-09T00:01:13.665Z,15.54
2017-08-09T00:01:18.166Z,15.54
2017-08-09T00:01:22.644Z,15.55
2017-08-09T00:01:26.760Z,15.55
2017-08-09T00:01:31.221Z,15.55
2017-08-09T00:01:35.571Z,15.55
2017-08-09T00:01:39.923Z,15.55
2017-08-09T00:01:44.268Z,15.55
2017-08-09T00:01:48.628Z,15.55
2017-08-09T00:01:52.745Z,15.55
2017-08-09T00:01:57.102Z,15.54
2017-08-09T00:02:01.559Z,15.55
2017-08-09T00:02:06.390Z,15.55
2017-08-09T00:02:10.736Z,15.55
2017-08-09T00:02:14.956Z,15.55
2017-08-09T00:02:19.302Z,15.55
2017-08-09T00:02:23.549Z,15.55
2017-08-09T00:02:27.767Z,15.54
2017-08-09T00:02:32.241Z,15.54
2017-08-09T00:02:36.248Z,15.54
2017-08-09T00:02:40.597Z,15.54
2017-08-09T00:02:44.927Z,15.54
2017-08-09T00:02:49.143Z,15.55
2017-08-09T00:02:53.629Z,15.54
2017-08-09T00:02:58.090Z,15.54
2017-08-09T00:03:02.442Z,15.53
2017-08-09T00:03:06.904Z,15.54
2017-08-09T00:03:11.263Z,15.54
2017-08-09T00:03:15.385Z,15.54
2017-08-09T00:03:19.735Z,15.54
2017-08-09T00:03:24.214Z,15.54
2017-08-09T00:03:28.697Z,15.54
2017-08-09T00:03:32.822Z,15.53
2017-08-09T00:03:37.177Z,15.53
2017-08-09T00:03:41.631Z,15.53
2017-08-09T00:03:46.106Z,15.53
2017-08-09T00:03:50.577Z,15.53
2017-08-09T00:03:54.956Z,15.53
2017-08-09T00:03:59.439Z,15.53
2017-08-09T00:04:03.447Z,15.53
2017-08-09T00:04:07.931Z,15.53
2017-08-09T00:04:12.177Z,15.53
2017-08-09T00:04:16.660Z,15.53
2017-08-09T00:04:21.122Z,15.53
2017-08-09T00:04:25.473Z,15.52
2017-08-09T00:04:29.950Z,15.52
2017-08-09T00:04:34.187Z,15.53
2017-08-09T00:04:38.650Z,15.53
2017-08-09T00:04:42.889Z,15.52
2017-08-09T00:04:47.114Z,15.52
2017-08-09T00:04:51.128Z,15.52
2017-08-09T00:04:55.464Z,15.52
2017-08-09T00:04:59.839Z,15.52
2017-08-09T00:05:04.625Z,15.52
2017-08-09T00:05:09.082Z,15.52
2017-08-09T00:05:13.542Z,15.52
2017-08-09T00:05:17.904Z,15.52
2017-08-09T00:05:22.362Z,15.52
2017-08-09T00:05:26.831Z,15.52
2017-08-09T00:05:31.297Z,15.52
2017-08-09T00:05:35.646Z,15.52
2017-08-09T00:05:39.864Z,15.52
2017-08-09T00:05:44.202Z,15.5
2017-08-09T00:05:48.582Z,15.52
2017-08-09T00:05:53.067Z,15.51
2017-08-09T00:05:57.416Z,15.51
2017-08-09T00:06:01.901Z,15.51
2017-08-09T00:06:06.252Z,15.51
2017-08-09T00:06:10.718Z,15.52
2017-08-09T00:06:14.963Z,15.52
2017-08-09T00:06:19.434Z,15.51
2017-08-09T00:06:23.783Z,15.5
2017-08-09T00:06:28.130Z,15.51
2017-08-09T00:06:32.462Z,15.51
2017-08-09T00:06:36.923Z,15.51
2017-08-09T00:06:41.257Z,15.51
2017-08-09T00:06:45.611Z,15.5
2017-08-09T00:06:49.962Z,15.51
2017-08-09T00:06:54.316Z,15.51
2017-08-09T00:06:58.536Z,15.51
2017-08-09T00:07:02.884Z,15.51
2017-08-09T00:07:07.249Z,15.52
2017-08-09T00:07:11.600Z,15.51
2017-08-09T00:07:15.952Z,15.51
2017-08-09T00:07:20.424Z,15.51
2017-08-09T00:07:24.427Z,15.51
2017-08-09T00:07:28.792Z,15.5
2017-08-09T00:07:33.028Z,15.51
2017-08-09T00:07:37.173Z,15.51
2017-08-09T00:07:41.530Z,15.5
2017-08-09T00:07:45.880Z,15.51
2017-08-09T00:07:50.220Z,15.51
2017-08-09T00:07:54.455Z,15.51
2017-08-09T00:07:58.682Z,15.51
2017-08-09T00:08:02.966Z,15.51
2017-08-09T00:08:07.430Z,15.51
2017-08-09T00:08:11.553Z,15.51
2017-08-09T00:08:15.701Z,15.51
2017-08-09T00:08:20.056Z,15.51
2017-08-09T00:08:24.181Z,15.51
2017-08-09T00:08:28.548Z,15.51
2017-08-09T00:08:33.023Z,15.51
2017-08-09T00:08:37.137Z,15.51
2017-08-09T00:08:41.507Z,15.51
2017-08-09T00:08:45.753Z,15.52
2017-08-09T00:08:50.092Z,15.51
2017-08-09T00:08:54.325Z,15.52
2017-08-09T00:08:58.679Z,15.51
2017-08-09T00:09:03.029Z,15.51
2017-08-09T00:09:07.248Z,15.51
2017-08-09T00:09:11.711Z,15.52
2017-08-09T00:09:16.205Z,15.52
2017-08-09T00:09:20.661Z,15.52
2017-08-09T00:09:25.130Z,15.51
2017-08-09T00:09:29.364Z,15.51
2017-08-09T00:09:33.479Z,15.52
2017-08-09T00:09:37.717Z,15.51
2017-08-09T00:09:42.165Z,15.51
2017-08-09T00:09:46.647Z,15.51
2017-08-09T00:09:51.139Z,15.52
2017-08-09T00:09:55.493Z,15.52
2017-08-09T00:09:59.853Z,15.52
2017-08-09T00:10:04.195Z,15.51
2017-08-09T00:10:08.668Z,15.52
2017-08-09T00:10:12.905Z,15.52
2017-08-09T00:10:17.385Z,15.51
2017-08-09T00:10:21.746Z,15.51
2017-08-09T00:10:25.980Z,15.52
2017-08-09T00:10:30.214Z,15.51
2017-08-09T00:10:34.457Z,15.51
2017-08-09T00:10:38.803Z,15.51
2017-08-09T00:10:43.263Z,15.51
2017-08-09T00:10:47.500Z,15.51
2017-08-09T00:10:51.879Z,15.51
2017-08-09T00:10:56.220Z,15.51
2017-08-09T00:11:00.451Z,15.51
2017-08-09T00:11:05.117Z,15.52
2017-08-09T00:11:09.600Z,15.52
2017-08-09T00:11:14.066Z,15.51
2017-08-09T00:11:18.408Z,15.51
2017-08-09T00:11:22.881Z,15.51
2017-08-09T00:11:27.106Z,15.51
2017-08-09T00:11:31.565Z,15.51
2017-08-09T00:11:35.562Z,15.52
2017-08-09T00:11:40.037Z,15.51
2017-08-09T00:11:44.314Z,15.51
2017-08-09T00:11:48.653Z,15.52
2017-08-09T00:11:52.990Z,15.52
2017-08-09T00:11:57.450Z,15.51
2017-08-09T00:12:01.782Z,15.51
2017-08-09T00:12:06.245Z,15.51
2017-08-09T00:12:10.479Z,15.5
2017-08-09T00:12:14.835Z,15.51
2017-08-09T00:12:19.190Z,15.51
2017-08-09T00:12:23.656Z,15.5
2017-08-09T00:12:28.012Z,15.5
2017-08-09T00:12:32.390Z,15.52
2017-08-09T00:12:36.871Z,15.51
2017-08-09T00:12:41.213Z,15.51
2017-08-09T00:12:45.694Z,15.51
2017-08-09T00:12:49.936Z,15.51
2017-08-09T00:12:54.408Z,15.51
2017-08-09T00:12:58.881Z,15.5
2017-08-09T00:13:03.412Z,15.51
2017-08-09T00:13:07.878Z,15.5
2017-08-09T00:13:12.335Z,15.5
2017-08-09T00:13:16.804Z,15.5
2017-08-09T00:13:21.163Z,15.51
2017-08-09T00:13:25.512Z,15.51
2017-08-09T00:13:29.740Z,15.5
2017-08-09T00:13:33.988Z,15.51
2017-08-09T00:13:38.330Z,15.5
2017-08-09T00:13:42.678Z,15.5
2017-08-09T00:13:47.149Z,15.5
2017-08-09T00:13:51.387Z,15.5
2017-08-09T00:13:55.615Z,15.5
2017-08-09T00:14:00.086Z,15.5
2017-08-09T00:14:04.633Z,15.51
2017-08-09T00:14:08.998Z,15.5
2017-08-09T00:14:13.355Z,15.5
2017-08-09T00:14:17.810Z,15.5
2017-08-09T00:14:22.048Z,15.5
2017-08-09T00:14:26.392Z,15.51
2017-08-09T00:14:30.844Z,15.5
2017-08-09T00:14:35.088Z,15.5
2017-08-09T00:14:39.328Z,15.5
2017-08-09T00:14:43.678Z,15.5
2017-08-09T00:14:47.893Z,15.51
2017-08-09T00:14:52.361Z,15.5
2017-08-09T00:14:56.721Z,15.5
2017-08-09T00:15:01.062Z,15.5
2017-08-09T00:15:05.497Z,15.5
2017-08-09T00:15:09.858Z,15.5
2017-08-09T00:15:14.318Z,15.49
2017-08-09T00:15:18.673Z,15.5
2017-08-09T00:15:22.895Z,15.5
2017-08-09T00:15:27.227Z,15.49
2017-08-09T00:15:31.689Z,15.5
2017-08-09T00:15:36.032Z,15.5
2017-08-09T00:15:40.404Z,15.5
2017-08-09T00:15:44.517Z,15.5
2017-08-09T00:15:48.870Z,15.5
2017-08-09T00:15:53.219Z,15.49
2017-08-09T00:15:57.327Z,15.5
2017-08-09T00:16:01.680Z,15.51
2017-08-09T00:16:05.909Z,15.48
2017-08-09T00:16:10.272Z,15.5
2017-08-09T00:16:14.508Z,15.49
2017-08-09T00:16:18.727Z,15.5
2017-08-09T00:16:23.068Z,15.5
2017-08-09T00:16:27.292Z,15.49
2017-08-09T00:16:31.640Z,15.51
2017-08-09T00:16:35.994Z,15.51
2017-08-09T00:16:40.232Z,15.5
2017-08-09T00:16:44.471Z,15.5
2017-08-09T00:16:48.707Z,15.5
2017-08-09T00:16:53.059Z,15.51
2017-08-09T00:16:57.281Z,15.5
2017-08-09T00:17:01.750Z,15.51
2017-08-09T00:17:05.857Z,15.5
2017-08-09T00:17:10.073Z,15.5
2017-08-09T00:17:14.540Z,15.5
2017-08-09T00:17:18.777Z,15.5
2017-08-09T00:17:22.896Z,15.5
2017-08-09T00:17:27.249Z,15.49
2017-08-09T00:17:31.585Z,15.51
2017-08-09T00:17:35.818Z,15.5
2017-08-09T00:17:40.153Z,15.5
2017-08-09T00:17:44.148Z,15.51
2017-08-09T00:17:48.508Z,15.51
2017-08-09T00:17:52.961Z,15.5
2017-08-09T00:17:57.323Z,15.51
2017-08-09T00:18:01.673Z,15.5
2017-08-09T00:18:06.179Z,15.51
2017-08-09T00:18:10.537Z,15.5
2017-08-09T00:18:14.994Z,15.51
2017-08-09T00:18:19.224Z,15.51
2017-08-09T00:18:23.570Z,15.51
2017-08-09T00:18:28.063Z,15.51
2017-08-09T00:18:32.402Z,15.51
2017-08-09T00:18:36.518Z,15.52
2017-08-09T00:18:40.852Z,15.51
2017-08-09T00:18:45.210Z,15.51
2017-08-09T00:18:49.559Z,15.5
2017-08-09T00:18:53.781Z,15.51
2017-08-09T00:18:58.030Z,15.51
2017-08-09T00:19:02.493Z,15.5
2017-08-09T00:19:06.725Z,15.51
2017-08-09T00:19:10.846Z,15.51
2017-08-09T00:19:15.324Z,15.51
2017-08-09T00:19:19.787Z,15.52
2017-08-09T00:19:24.031Z,15.51
2017-08-09T00:19:28.498Z,15.51
2017-08-09T00:19:32.840Z,15.51
2017-08-09T00:19:37.192Z,15.52
2017-08-09T00:19:41.428Z,15.5
2017-08-09T00:19:45.914Z,15.52
2017-08-09T00:19:50.138Z,15.52
2017-08-09T00:19:54.491Z,15.51
2017-08-09T00:19:58.839Z,15.51
2017-08-09T00:20:03.272Z,15.51
2017-08-09T00:20:07.625Z,15.51
2017-08-09T00:20:11.740Z,15.52
2017-08-09T00:20:16.209Z,15.51
2017-08-09T00:20:20.573Z,15.51
2017-08-09T00:20:24.914Z,15.51
2017-08-09T00:20:29.381Z,15.52
2017-08-09T00:20:33.852Z,15.52
2017-08-09T00:20:38.231Z,15.52
2017-08-09T00:20:42.462Z,15.51
2017-08-09T00:20:46.699Z,15.51
2017-08-09T00:20:51.078Z,15.52
2017-08-09T00:20:55.550Z,15.52
2017-08-09T00:21:00.009Z,15.52
2017-08-09T00:21:04.364Z,15.51
2017-08-09T00:21:08.867Z,15.52
2017-08-09T00:21:13.099Z,15.52
2017-08-09T00:21:17.450Z,15.52
2017-08-09T00:21:21.918Z,15.52
2017-08-09T00:21:26.036Z,15.52
2017-08-09T00:21:30.378Z,15.51
2017-08-09T00:21:34.856Z,15.52
2017-08-09T00:21:39.227Z,15.52
2017-08-09T00:21:43.685Z,15.52
2017-08-09T00:21:47.906Z,15.53
2017-08-09T00:21:52.370Z,15.52
2017-08-09T00:21:56.726Z,15.52
2017-08-09T00:22:00.962Z,15.53
2017-08-09T00:22:05.309Z,15.53
2017-08-09T00:22:09.658Z,15.53
2017-08-09T00:22:13.891Z,15.53
2017-08-09T00:22:18.363Z,15.52
2017-08-09T00:22:22.829Z,15.53
2017-08-09T00:22:26.933Z,15.53
2017-08-09T00:22:31.382Z,15.53
2017-08-09T00:22:35.744Z,15.54
2017-08-09T00:22:40.108Z,15.54
2017-08-09T00:22:44.376Z,15.53
2017-08-09T00:22:48.837Z,15.54
2017-08-09T00:22:53.059Z,15.54
2017-08-09T00:22:57.512Z,15.54
2017-08-09T00:23:01.843Z,15.53
2017-08-09T00:23:06.301Z,15.53
2017-08-09T00:23:10.641Z,15.54
2017-08-09T00:23:15.014Z,15.54
2017-08-09T00:23:19.487Z,15.54
2017-08-09T00:23:23.834Z,15.54
2017-08-09T00:23:28.305Z,15.55
2017-08-09T00:23:32.799Z,15.55
2017-08-09T00:23:37.016Z,15.54
2017-08-09T00:23:41.244Z,15.54
2017-08-09T00:23:45.588Z,15.55
2017-08-09T00:23:49.709Z,15.54
2017-08-09T00:23:53.933Z,15.54
2017-08-09T00:23:58.046Z,15.54
2017-08-09T00:24:02.703Z,15.54
2017-08-09T00:24:07.053Z,15.55
2017-08-09T00:24:11.509Z,15.54
2017-08-09T00:24:15.755Z,15.54
2017-08-09T00:24:20.211Z,15.55
2017-08-09T00:24:24.460Z,15.54
2017-08-09T00:24:28.690Z,15.55
2017-08-09T00:24:33.158Z,15.55
2017-08-09T00:24:37.398Z,15.54
2017-08-09T00:24:41.861Z,15.55
2017-08-09T00:24:46.103Z,15.55
2017-08-09T00:24:50.320Z,15.55
2017-08-09T00:24:54.670Z,15.54
2017-08-09T00:24:59.012Z,15.55
2017-08-09T00:25:03.372Z,15.55
2017-08-09T00:25:07.846Z,15.55
2017-08-09T00:25:12.201Z,15.55
2017-08-09T00:25:16.548Z,15.55
2017-08-09T00:25:20.994Z,15.56
2017-08-09T00:25:25.225Z,15.55
2017-08-09T00:25:29.456Z,15.55
2017-08-09T00:25:33.805Z,15.55
2017-08-09T00:25:38.159Z,15.55
2017-08-09T00:25:42.270Z,15.55
2017-08-09T00:25:46.510Z,15.55
2017-08-09T00:25:50.852Z,15.56
2017-08-09T00:25:55.191Z,15.55
2017-08-09T00:25:59.539Z,15.55
2017-08-09T00:26:03.775Z,15.55
2017-08-09T00:26:08.124Z,15.55
2017-08-09T00:26:12.509Z,15.54
2017-08-09T00:26:16.964Z,15.56
2017-08-09T00:26:21.434Z,15.55
2017-08-09T00:26:25.894Z,15.55
2017-08-09T00:26:30.243Z,15.56
2017-08-09T00:26:34.499Z,15.56
2017-08-09T00:26:38.733Z,15.55
2017-08-09T00:26:42.973Z,15.56
2017-08-09T00:26:47.313Z,15.56
2017-08-09T00:26:51.674Z,15.55
2017-08-09T00:26:56.145Z,15.55
2017-08-09T00:27:00.625Z,15.56
2017-08-09T00:27:04.850Z,15.56
2017-08-09T00:27:09.199Z,15.56
2017-08-09T00:27:13.428Z,15.55
2017-08-09T00:27:17.896Z,15.56
2017-08-09T00:27:22.230Z,15.56
2017-08-09T00:27:26.709Z,15.56
2017-08-09T00:27:31.074Z,15.55
2017-08-09T00:27:35.405Z,15.55
2017-08-09T00:27:39.632Z,15.56
2017-08-09T00:27:44.100Z,15.56
2017-08-09T00:27:48.562Z,15.55
2017-08-09T00:27:52.788Z,15.55
2017-08-09T00:27:57.141Z,15.56
2017-08-09T00:28:01.410Z,15.55
2017-08-09T00:28:05.712Z,15.55
2017-08-09T00:28:09.838Z,15.56
2017-08-09T00:28:14.313Z,15.56
2017-08-09T00:28:18.656Z,15.55
2017-08-09T00:28:22.891Z,15.56
2017-08-09T00:28:27.250Z,15.55
2017-08-09T00:28:31.725Z,15.55
2017-08-09T00:28:35.952Z,15.55
2017-08-09T00:28:40.054Z,15.54
2017-08-09T00:28:44.409Z,15.55
2017-08-09T00:28:48.899Z,15.55
2017-08-09T00:28:53.253Z,15.55
2017-08-09T00:28:57.723Z,15.55
2017-08-09T00:29:02.509Z,15.55
2017-08-09T00:29:06.882Z,15.54
2017-08-09T00:29:11.347Z,15.55
2017-08-09T00:29:15.820Z,15.54
2017-08-09T00:29:20.304Z,15.54
2017-08-09T00:29:24.581Z,15.54
2017-08-09T00:29:29.033Z,15.55
2017-08-09T00:29:33.497Z,15.55
2017-08-09T00:29:37.849Z,15.55
2017-08-09T00:29:42.083Z,15.55
2017-08-09T00:29:46.550Z,15.54
2017-08-09T00:29:50.784Z,15.54
2017-08-09T00:29:55.255Z,15.54
2017-08-09T00:29:59.712Z,15.55
2017-08-09T00:30:03.934Z,15.54
2017-08-09T00:30:08.178Z,15.54
2017-08-09T00:30:12.528Z,15.54
2017-08-09T00:30:16.757Z,15.54
2017-08-09T00:30:21.102Z,15.54
2017-08-09T00:30:25.450Z,15.54
2017-08-09T00:30:29.680Z,15.54
2017-08-09T00:30:34.035Z,15.53
2017-08-09T00:30:38.494Z,15.54
2017-08-09T00:30:42.836Z,15.54
2017-08-09T00:30:47.181Z,15.54
2017-08-09T00:30:51.401Z,15.53
2017-08-09T00:30:55.873Z,15.53
2017-08-09T00:31:00.361Z,15.54
2017-08-09T00:31:04.769Z,15.53
2017-08-09T00:31:08.890Z,15.53
2017-08-09T00:31:13.370Z,15.54
2017-08-09T00:31:17.709Z,15.53
2017-08-09T00:31:21.930Z,15.54
2017-08-09T00:31:26.041Z,15.54
2017-08-09T00:31:30.147Z,15.54
2017-08-09T00:31:34.501Z,15.54
2017-08-09T00:31:38.741Z,15.54
2017-08-09T00:31:43.005Z,15.53
2017-08-09T00:31:47.121Z,15.54
2017-08-09T00:31:51.479Z,15.54
2017-08-09T00:31:55.592Z,15.54
2017-08-09T00:32:00.090Z,15.53
2017-08-09T00:32:04.325Z,15.54
2017-08-09T00:32:08.572Z,15.54
2017-08-09T00:32:13.057Z,15.55
2017-08-09T00:32:17.417Z,15.54
2017-08-09T00:32:21.889Z,15.54
2017-08-09T00:32:26.358Z,15.54
2017-08-09T00:32:30.710Z,15.55
2017-08-09T00:32:35.203Z,15.54
2017-08-09T00:32:39.561Z,15.54
2017-08-09T00:32:43.676Z,15.54
2017-08-09T00:32:47.807Z,15.54
2017-08-09T00:32:52.137Z,15.55
2017-08-09T00:32:56.601Z,15.54
2017-08-09T00:33:01.076Z,15.55
2017-08-09T00:33:05.657Z,15.54
2017-08-09T00:33:09.996Z,15.54
2017-08-09T00:33:14.464Z,15.55
2017-08-09T00:33:18.694Z,15.54
2017-08-09T00:33:23.163Z,15.55
2017-08-09T00:33:27.401Z,15.55
2017-08-09T00:33:31.881Z,15.55
2017-08-09T00:33:36.346Z,15.55
2017-08-09T00:33:40.685Z,15.55
2017-08-09T00:33:44.906Z,15.55
2017-08-09T00:33:49.371Z,15.55
2017-08-09T00:33:53.600Z,15.55
2017-08-09T00:33:58.072Z,15.55
2017-08-09T00:34:02.662Z,15.55
2017-08-09T00:34:07.014Z,15.55
2017-08-09T00:34:11.367Z,15.55
2017-08-09T00:34:15.704Z,15.55
2017-08-09T00:34:20.173Z,15.55
2017-08-09T00:34:24.523Z,15.55
2017-08-09T00:34:28.873Z,15.56
2017-08-09T00:34:33.341Z,15.56
2017-08-09T00:34:37.689Z,15.56
2017-08-09T00:34:42.087Z,15.55
2017-08-09T00:34:46.428Z,15.55
2017-08-09T00:34:50.786Z,15.55
2017-08-09T00:34:55.255Z,15.55
2017-08-09T00:34:59.728Z,15.56
2017-08-09T00:35:04.076Z,15.56
2017-08-09T00:35:08.422Z,15.56
2017-08-09T00:35:12.923Z,15.56
2017-08-09T00:35:17.387Z,15.56
2017-08-09T00:35:21.630Z,15.56
2017-08-09T00:35:25.867Z,15.56
2017-08-09T00:35:30.240Z,15.57
2017-08-09T00:35:34.720Z,15.56
2017-08-09T00:35:39.063Z,15.56
2017-08-09T00:35:43.286Z,15.56
2017-08-09T00:35:47.634Z,15.56
2017-08-09T00:35:52.100Z,15.56
2017-08-09T00:35:56.330Z,15.57
2017-08-09T00:36:00.791Z,15.57
2017-08-09T00:36:05.258Z,15.56
2017-08-09T00:36:09.489Z,15.56
2017-08-09T00:36:13.717Z,15.56
2017-08-09T00:36:18.069Z,15.57
2017-08-09T00:36:22.291Z,15.56
2017-08-09T00:36:26.507Z,15.57
2017-08-09T00:36:30.962Z,15.56
2017-08-09T00:36:35.329Z,15.57
2017-08-09T00:36:39.668Z,15.56
2017-08-09T00:36:44.120Z,15.57
2017-08-09T00:36:48.251Z,15.57
2017-08-09T00:36:52.599Z,15.56
2017-08-09T00:36:57.061Z,15.57
2017-08-09T00:37:01.411Z,15.57
2017-08-09T00:37:05.650Z,15.57
2017-08-09T00:37:10.102Z,15.58
2017-08-09T00:37:14.216Z,15.56
2017-08-09T00:37:18.569Z,15.58
2017-08-09T00:37:22.931Z,15.57
2017-08-09T00:37:27.398Z,15.58
2017-08-09T00:37:31.858Z,15.57
2017-08-09T00:37:36.193Z,15.58
2017-08-09T00:37:40.637Z,15.57
2017-08-09T00:37:44.990Z,15.58
2017-08-09T00:37:49.463Z,15.58
2017-08-09T00:37:53.572Z,15.59
2017-08-09T00:37:57.924Z,15.58
2017-08-09T00:38:02.274Z,15.58
2017-08-09T00:38:06.623Z,15.57
2017-08-09T00:38:10.849Z,15.58
2017-08-09T00:38:15.090Z,15.58
2017-08-09T00:38:19.458Z,15.58
2017-08-09T00:38:23.935Z,15.58
2017-08-09T00:38:28.162Z,15.58
2017-08-09T00:38:32.632Z,15.57
2017-08-09T00:38:37.096Z,15.58
2017-08-09T00:38:41.327Z,15.58
2017-08-09T00:38:45.686Z,15.58
2017-08-09T00:38:50.191Z,15.58
2017-08-09T00:38:54.547Z,15.58
2017-08-09T00:38:58.773Z,15.58
2017-08-09T00:39:03.252Z,15.58
2017-08-09T00:39:07.614Z,15.58
2017-08-09T00:39:11.608Z,15.58
2017-08-09T00:39:15.958Z,15.58
2017-08-09T00:39:20.330Z,15.58
2017-08-09T00:39:24.676Z,15.59
2017-08-09T00:39:28.907Z,15.59
2017-08-09T00:39:33.381Z,15.58
2017-08-09T00:39:37.747Z,15.59
2017-08-09T00:39:42.093Z,15.59
2017-08-09T00:39:46.457Z,15.59
2017-08-09T00:39:50.798Z,15.59
2017-08-09T00:39:55.141Z,15.59
2017-08-09T00:39:59.467Z,15.59
2017-08-09T00:40:04.117Z,15.59
2017-08-09T00:40:08.496Z,15.59
2017-08-09T00:40:12.849Z,15.59
2017-08-09T00:40:17.320Z,15.59
2017-08-09T00:40:21.785Z,15.59
2017-08-09T00:40:26.157Z,15.59
2017-08-09T00:40:30.641Z,15.59
2017-08-09T00:40:34.868Z,15.58
2017-08-09T00:40:39.111Z,15.6
2017-08-09T00:40:43.348Z,15.6
2017-08-09T00:40:47.705Z,15.59
2017-08-09T00:40:52.164Z,15.6
2017-08-09T00:40:56.398Z,15.6
2017-08-09T00:41:00.881Z,15.6
2017-08-09T00:41:05.437Z,15.6
2017-08-09T00:41:09.896Z,15.6
2017-08-09T00:41:14.383Z,15.6
2017-08-09T00:41:18.850Z,15.6
2017-08-09T00:41:23.319Z,15.6
2017-08-09T00:41:27.556Z,15.6
2017-08-09T00:41:31.921Z,15.6
2017-08-09T00:41:36.281Z,15.6
2017-08-09T00:41:40.497Z,15.61
2017-08-09T00:41:44.845Z,15.6
2017-08-09T00:41:49.350Z,15.6
2017-08-09T00:41:53.692Z,15.61
2017-08-09T00:41:58.035Z,15.61
2017-08-09T00:42:02.284Z,15.61
2017-08-09T00:42:06.646Z,15.61
2017-08-09T00:42:10.999Z,15.6
2017-08-09T00:42:15.341Z,15.61
2017-08-09T00:42:19.585Z,15.61
2017-08-09T00:42:23.976Z,15.6
2017-08-09T00:42:28.441Z,15.61
2017-08-09T00:42:32.779Z,15.61
2017-08-09T00:42:37.140Z,15.61
2017-08-09T00:42:41.476Z,15.61
2017-08-09T00:42:45.578Z,15.61
2017-08-09T00:42:49.940Z,15.61
2017-08-09T00:42:54.285Z,15.6
2017-08-09T00:42:58.526Z,15.61
2017-08-09T00:43:02.866Z,15.61
2017-08-09T00:43:07.209Z,15.61
2017-08-09T00:43:11.550Z,15.61
2017-08-09T00:43:16.004Z,15.62
2017-08-09T00:43:20.485Z,15.61
2017-08-09T00:43:24.739Z,15.61
2017-08-09T00:43:29.210Z,15.61
2017-08-09T00:43:33.551Z,15.61
2017-08-09T00:43:37.896Z,15.62
2017-08-09T00:43:42.259Z,15.61
2017-08-09T00:43:46.491Z,15.61
2017-08-09T00:43:50.943Z,15.62
2017-08-09T00:43:55.297Z,15.61
2017-08-09T00:43:59.561Z,15.62
2017-08-09T00:44:04.017Z,15.62
2017-08-09T00:44:08.225Z,15.62
2017-08-09T00:44:12.685Z,15.61
2017-08-09T00:44:17.041Z,15.61
2017-08-09T00:44:21.381Z,15.62
2017-08-09T00:44:25.615Z,15.62
2017-08-09T00:44:30.111Z,15.61
2017-08-09T00:44:34.450Z,15.61
2017-08-09T00:44:38.673Z,15.61
2017-08-09T00:44:43.025Z,15.6
2017-08-09T00:44:47.517Z,15.6
2017-08-09T00:44:51.740Z,15.6
2017-08-09T00:44:56.077Z,15.61
2017-08-09T00:45:00.424Z,15.61
2017-08-09T00:45:04.892Z,15.6
2017-08-09T00:45:09.237Z,15.6
2017-08-09T00:45:13.718Z,15.6
2017-08-09T00:45:18.203Z,15.59
2017-08-09T00:45:22.658Z,15.59
2017-08-09T00:45:27.118Z,15.59
2017-08-09T00:45:31.587Z,15.6
2017-08-09T00:45:35.953Z,15.59
2017-08-09T00:45:40.288Z,15.58
2017-08-09T00:45:44.388Z,15.6
2017-08-09T00:45:48.629Z,15.59
2017-08-09T00:45:52.980Z,15.59
2017-08-09T00:45:57.209Z,15.6
2017-08-09T00:46:01.556Z,15.58
2017-08-09T00:46:06.037Z,15.58
2017-08-09T00:46:10.388Z,15.58
2017-08-09T00:46:14.850Z,15.58
2017-08-09T00:46:19.319Z,15.58
2017-08-09T00:46:23.661Z,15.58
2017-08-09T00:46:28.022Z,15.59
2017-08-09T00:46:32.490Z,15.58
2017-08-09T00:46:36.850Z,15.57
2017-08-09T00:46:41.344Z,15.58
2017-08-09T00:46:45.682Z,15.58
2017-08-09T00:46:50.168Z,15.57
2017-08-09T00:46:54.286Z,15.57
2017-08-09T00:46:58.639Z,15.57
2017-08-09T00:47:03.389Z,15.58
2017-08-09T00:47:07.729Z,15.57
2017-08-09T00:47:12.195Z,15.58
2017-08-09T00:47:16.557Z,15.57
2017-08-09T00:47:21.013Z,15.57
2017-08-09T00:47:25.473Z,15.57
2017-08-09T00:47:29.832Z,15.57
2017-08-09T00:47:34.290Z,15.57
2017-08-09T00:47:38.507Z,15.56
2017-08-09T00:47:43.000Z,15.56
2017-08-09T00:47:47.495Z,15.57
2017-08-09T00:47:51.735Z,15.57
2017-08-09T00:47:56.074Z,15.56
2017-08-09T00:48:00.191Z,15.57
2017-08-09T00:48:04.669Z,15.57
2017-08-09T00:48:08.909Z,15.57
2017-08-09T00:48:13.250Z,15.56
2017-08-09T00:48:17.595Z,15.56
2017-08-09T00:48:22.070Z,15.57
2017-08-09T00:48:26.412Z,15.56
2017-08-09T00:48:30.752Z,15.57
2017-08-09T00:48:35.239Z,15.56
2017-08-09T00:48:39.346Z,15.56
2017-08-09T00:48:43.680Z,15.56
2017-08-09T00:48:48.058Z,15.56
2017-08-09T00:48:52.409Z,15.56
2017-08-09T00:48:56.746Z,15.56
2017-08-09T00:49:01.111Z,15.56
2017-08-09T00:49:05.369Z,15.55
2017-08-09T00:49:09.606Z,15.56
2017-08-09T00:49:13.714Z,15.55
2017-08-09T00:49:18.065Z,15.56
2017-08-09T00:49:22.563Z,15.55
2017-08-09T00:49:26.694Z,15.55
2017-08-09T00:49:31.030Z,15.55
2017-08-09T00:49:35.283Z,15.55
2017-08-09T00:49:39.272Z,15.55
2017-08-09T00:49:43.624Z,15.55
2017-08-09T00:49:47.969Z,15.55
2017-08-09T00:49:52.206Z,15.55
2017-08-09T00:49:56.697Z,15.55
2017-08-09T00:50:01.175Z,15.55
2017-08-09T00:50:05.403Z,15.55
2017-08-09T00:50:09.526Z,15.55
2017-08-09T00:50:13.753Z,15.54
2017-08-09T00:50:18.211Z,15.55
2017-08-09T00:50:22.676Z,15.55
2017-08-09T00:50:26.812Z,15.54
2017-08-09T00:50:30.932Z,15.54
2017-08-09T00:50:35.409Z,15.54
2017-08-09T00:50:39.744Z,15.54
2017-08-09T00:50:44.206Z,15.54
2017-08-09T00:50:48.436Z,15.54
2017-08-09T00:50:52.648Z,15.54
2017-08-09T00:50:57.007Z,15.54
2017-08-09T00:51:01.356Z,15.53
2017-08-09T00:51:05.718Z,15.53
2017-08-09T00:51:10.062Z,15.54
2017-08-09T00:51:14.439Z,15.53
2017-08-09T00:51:18.796Z,15.53
2017-08-09T00:51:23.149Z,15.53
2017-08-09T00:51:27.375Z,15.54
2017-08-09T00:51:31.845Z,15.54
2017-08-09T00:51:36.184Z,15.53
2017-08-09T00:51:40.290Z,15.53
2017-08-09T00:51:44.634Z,15.52
2017-08-09T00:51:49.109Z,15.53
2017-08-09T00:51:53.581Z,15.53
2017-08-09T00:51:58.038Z,15.53
2017-08-09T00:52:02.155Z,15.52
2017-08-09T00:52:06.387Z,15.53
2017-08-09T00:52:10.610Z,15.52
2017-08-09T00:52:15.077Z,15.52
2017-08-09T00:52:19.548Z,15.53
2017-08-09T00:52:24.022Z,15.52
2017-08-09T00:52:28.126Z,15.51
2017-08-09T00:52:32.218Z,15.53
2017-08-09T00:52:36.578Z,15.52
2017-08-09T00:52:41.044Z,15.52
2017-08-09T00:52:45.266Z,15.51
2017-08-09T00:52:49.610Z,15.52
2017-08-09T00:52:53.848Z,15.52
2017-08-09T00:52:58.080Z,15.51
2017-08-09T00:53:02.501Z,15.52
2017-08-09T00:53:06.844Z,15.51
2017-08-09T00:53:11.204Z,15.52
2017-08-09T00:53:15.679Z,15.5
2017-08-09T00:53:20.145Z,15.51
2017-08-09T00:53:24.628Z,15.52
2017-08-09T00:53:28.974Z,15.51
2017-08-09T00:53:33.420Z,15.51
2017-08-09T00:53:37.656Z,15.51
2017-08-09T00:53:42.016Z,15.51
2017-08-09T00:53:46.130Z,15.51
2017-08-09T00:53:50.458Z,15.51
2017-08-09T00:53:54.681Z,15.51
2017-08-09T00:53:59.027Z,15.51
2017-08-09T00:54:03.269Z,15.51
2017-08-09T00:54:07.736Z,15.51
2017-08-09T00:54:12.215Z,15.51
2017-08-09T00:54:16.578Z,15.51
2017-08-09T00:54:21.035Z,15.51
2017-08-09T00:54:25.493Z,15.51
2017-08-09T00:54:29.966Z,15.51
2017-08-09T00:54:34.194Z,15.5
2017-08-09T00:54:38.421Z,15.51
2017-08-09T00:54:42.889Z,15.51
2017-08-09T00:54:47.364Z,15.5
2017-08-09T00:54:51.613Z,15.5
2017-08-09T00:54:55.972Z,15.5
2017-08-09T00:55:00.336Z,15.49
2017-08-09T00:55:04.683Z,15.51
2017-08-09T00:55:09.140Z,15.51
2017-08-09T00:55:13.496Z,15.5
2017-08-09T00:55:17.854Z,15.5
2017-08-09T00:55:22.324Z,15.5
2017-08-09T00:55:26.693Z,15.5
2017-08-09T00:55:31.186Z,15.5
2017-08-09T00:55:35.650Z,15.49
2017-08-09T00:55:40.109Z,15.51
2017-08-09T00:55:44.460Z,15.5
2017-08-09T00:55:48.813Z,15.5
2017-08-09T00:55:53.156Z,15.5
2017-08-09T00:55:57.627Z,15.49
2017-08-09T00:56:01.853Z,15.5
2017-08-09T00:56:06.082Z,15.5
2017-08-09T00:56:10.187Z,15.5
2017-08-09T00:56:14.541Z,15.5
2017-08-09T00:56:18.895Z,15.5